Durango, Mexico

5:08 PM EST on July 27, 2016 (GMT -0500)
Durango | | Change Station

Elev 6093 ft 24.12 °N, 104.53 °W | Updated 27 minutes ago

Light Rain
Light Rain
61 °F
Feels Like 61 °F
N
16
Wind Variable Wind from WNW

Today
High -- | Low -- °F
--% Chance of Precip.
Yesterday
High -- | Low -- °F
Precip. -- in
Pressure 30.19 in
Visibility 8.0 miles
Clouds Overcast 2500 ft
Dew Point 55 °F
Humidity 82%
Rainfall 0.00 in
Snow Depth Not available.
7:25 AM 8:43 PM
Last Quarter, 39% visible
METAR MMDO 272141Z 30014KT 8SM -RA OVC025CB 16/13 A3019 RMK 60255 8/3// RAB32E36 FQTLTGCC 3 AND4 QUAD OCNL DROPS
Pressure 30.19 in
Visibility 8.0 miles
Clouds Overcast 2500 ft
Dew Point 55 °F
Humidity 82%
Rainfall 0.00 in
Snow Depth Not available.
7:25 AM 8:43 PM
Last Quarter, 39% visible
METAR MMDO 272141Z 30014KT 8SM -RA OVC025CB 16/13 A3019 RMK 60255 8/3// RAB32E36 FQTLTGCC 3 AND4 QUAD OCNL DROPS

10-Day Weather Forecast

No radar image for this location.
×

Almanac

Astronomy

Jul. 27, 2016 Rise Set
Actual Time
Civil Twilight
Nautical Twilight
Astronomical Twilight
Moon
Length of Visible Light
Length of Day
Tomorrow will be .
, % of the Moon is Illuminated

Today's Extremes

Country Highs Country Lows

Community

WunderPhotos

Upload Photos

1,927,944 photos uploaded!

WunderBlog® & News

Nearby

Air Quality

  Air Quality AQ Index Pollutant
Not available.

Snow Depth

Station Depth Elevation

Earthquake Activity

City Distance Mag. Time & Date
Minimum magnitude displayed is 2.5.

Coastal Water Temperatures

Place Temperature

Stations

Nearby Weather Stations

Station Location Temp. Windchill Dew Point Humidity Wind Precip. Elev Updated Type